createdAt,value
2022-09-22T00:00:05.511Z,101174.63
2022-09-22T00:03:09.102Z,101169.25
2022-09-22T00:06:14.139Z,101178.28
2022-09-22T00:09:19.742Z,101174.72
2022-09-22T00:12:23.802Z,101173.88
2022-09-22T00:15:26.464Z,101181.13
2022-09-22T00:18:30.154Z,101175.75
2022-09-22T00:21:32.853Z,101181.16
2022-09-22T00:24:36.168Z,101182.13
2022-09-22T00:27:40.189Z,101170.53
2022-09-22T00:30:43.911Z,101175.91
2022-09-22T00:33:47.829Z,101175.09
2022-09-22T00:36:51.842Z,101180.47
2022-09-22T00:39:54.483Z,101169.72
2022-09-22T00:46:29.590Z,101168.78
2022-09-22T00:49:47.414Z,101171.41
2022-09-22T00:52:54.696Z,101165.00
2022-09-22T00:56:01.430Z,101169.34
2022-09-22T00:59:09.045Z,101168.34
2022-09-22T01:02:13.164Z,101165.53
2022-09-22T01:05:16.287Z,101157.38
2022-09-22T01:08:22.462Z,101165.41
2022-09-22T01:11:26.296Z,101146.59
2022-09-22T01:14:43.569Z,101154.53
2022-09-22T01:18:01.722Z,101159.91
2022-09-22T01:21:27.819Z,101153.59
2022-09-22T01:25:00.530Z,101142.81
2022-09-22T01:28:20.800Z,101148.13
2022-09-22T01:31:32.494Z,101145.41
2022-09-22T01:34:43.962Z,101147.22
2022-09-22T01:37:59.071Z,101141.00
2022-09-22T01:41:04.946Z,101140.06
2022-09-22T01:44:14.299Z,101149.09
2022-09-22T01:47:21.994Z,101135.69
2022-09-22T01:50:30.072Z,101141.84
2022-09-22T01:53:38.520Z,101135.53
2022-09-22T01:56:43.847Z,101136.41
2022-09-22T01:59:53.096Z,101139.91
2022-09-22T02:03:02.069Z,101135.41
2022-09-22T02:06:10.277Z,101124.72
2022-09-22T02:09:17.483Z,101129.22
2022-09-22T02:12:20.739Z,101127.44
2022-09-22T02:15:41.855Z,101129.25
2022-09-22T02:18:50.619Z,101132.06
2022-09-22T02:21:53.894Z,101131.97
2022-09-22T02:24:56.555Z,101126.56
2022-09-22T02:28:01.008Z,101125.69
2022-09-22T02:31:22.248Z,101123.88
2022-09-22T02:34:26.950Z,101116.69
2022-09-22T02:37:38.879Z,101129.28
2022-09-22T02:40:47.188Z,101105.25
2022-09-22T02:43:55.981Z,101117.63
2022-09-22T02:47:03.388Z,101127.44
2022-09-22T02:50:11.293Z,101122.03
2022-09-22T02:53:17.771Z,101121.06
2022-09-22T02:56:20.938Z,101128.94
2022-09-22T02:59:23.640Z,101125.38
2022-09-22T03:02:26.627Z,101124.47
2022-09-22T03:05:30.620Z,101124.44
2022-09-22T03:08:34.005Z,101122.94
2022-09-22T03:11:36.715Z,101118.50
2022-09-22T03:14:39.919Z,101113.09
2022-09-22T03:17:43.009Z,101106.84
2022-09-22T03:20:47.289Z,101107.59
2022-09-22T03:23:49.973Z,101112.03
2022-09-22T03:26:53.115Z,101108.31
2022-09-22T03:29:56.640Z,101109.09
2022-09-22T03:32:59.646Z,101103.66
2022-09-22T03:36:04.566Z,101103.72
2022-09-22T03:39:07.775Z,101104.69
2022-09-22T03:42:10.611Z,101099.09
2022-09-22T03:45:14.964Z,101107.25
2022-09-22T03:48:18.246Z,101104.09
2022-09-22T03:51:22.657Z,101108.63
2022-09-22T03:54:25.496Z,101105.09
2022-09-22T03:57:28.164Z,101105.16
2022-09-22T04:00:30.870Z,101106.84
2022-09-22T04:03:34.334Z,101104.28
2022-09-22T04:06:40.803Z,101100.81
2022-09-22T04:09:43.902Z,101100.03
2022-09-22T04:12:47.364Z,101105.63
2022-09-22T04:15:50.307Z,101098.50
2022-09-22T04:18:52.986Z,101102.84
2022-09-22T04:21:57.602Z,101105.69
2022-09-22T04:25:00.802Z,101095.00
2022-09-22T04:28:05.659Z,101088.66
2022-09-22T04:31:09.155Z,101101.97
2022-09-22T04:34:11.920Z,101091.97
2022-09-22T04:37:16.572Z,101091.03
2022-09-22T04:40:19.218Z,101096.31
2022-09-22T04:43:21.923Z,101095.41
2022-09-22T04:46:26.557Z,101092.84
2022-09-22T04:49:29.649Z,101083.88
2022-09-22T04:52:33.973Z,101077.56
2022-09-22T04:55:37.210Z,101080.03
2022-09-22T04:58:39.878Z,101083.75
2022-09-22T05:01:42.611Z,101084.66
2022-09-22T05:04:45.323Z,101088.22
2022-09-22T05:07:52.484Z,101088.06
2022-09-22T05:10:56.713Z,101093.53
2022-09-22T05:13:59.998Z,101094.50
2022-09-22T05:17:02.975Z,101091.97
2022-09-22T05:20:06.660Z,101092.97
2022-09-22T05:23:11.632Z,101104.66
2022-09-22T05:26:14.481Z,101102.91
2022-09-22T05:29:18.327Z,101101.31
2022-09-22T05:32:21.418Z,101103.88
2022-09-22T05:35:26.189Z,101107.50
2022-09-22T05:38:30.209Z,101102.84
2022-09-22T05:41:33.317Z,101113.50
2022-09-22T05:44:35.963Z,101105.44
2022-09-22T05:47:40.417Z,101092.75
2022-09-22T05:50:44.565Z,101107.94
2022-09-22T05:53:48.526Z,101113.09
2022-09-22T05:56:51.152Z,101113.13
2022-09-22T05:59:54.104Z,101108.72
2022-09-22T06:02:56.828Z,101115.03
2022-09-22T06:06:00.029Z,101114.25
2022-09-22T06:09:04.617Z,101118.72
2022-09-22T06:12:08.665Z,101117.81
2022-09-22T06:15:12.145Z,101123.22
2022-09-22T06:18:16.922Z,101121.53
2022-09-22T06:21:22.137Z,101114.38
2022-09-22T06:24:26.925Z,101124.09
2022-09-22T06:27:29.542Z,101124.94
2022-09-22T06:30:33.040Z,101114.34
2022-09-22T06:33:36.451Z,101124.94
2022-09-22T06:36:43.023Z,101126.78
2022-09-22T06:39:47.587Z,101124.13
2022-09-22T06:42:50.798Z,101122.22
2022-09-22T06:45:53.821Z,101119.53
2022-09-22T06:48:58.031Z,101121.25
2022-09-22T06:52:00.688Z,101111.31
2022-09-22T06:55:05.810Z,101109.38
2022-09-22T06:58:09.029Z,101110.38
2022-09-22T07:01:11.738Z,101112.97
2022-09-22T07:04:15.271Z,101110.09
2022-09-22T07:07:17.908Z,101105.34
2022-09-22T07:10:22.118Z,101099.97
2022-09-22T07:13:24.953Z,101101.59
2022-09-22T07:16:28.704Z,101096.03
2022-09-22T07:19:33.057Z,101094.03
2022-09-22T07:22:39.431Z,101098.94
2022-09-22T07:25:44.948Z,101084.44
2022-09-22T07:28:50.334Z,101086.75
2022-09-22T07:31:53.964Z,101084.16
2022-09-22T07:34:57.866Z,101082.31
2022-09-22T07:38:03.822Z,101085.88
2022-09-22T07:41:10.071Z,101097.72
2022-09-22T07:44:32.504Z,101095.09
2022-09-22T07:47:52.902Z,101094.31
2022-09-22T07:51:00.152Z,101095.25
2022-09-22T07:54:07.655Z,101083.97
2022-09-22T07:57:12.699Z,101080.94
2022-09-22T08:00:16.100Z,101079.13
2022-09-22T08:03:18.836Z,101075.53
2022-09-22T08:06:23.773Z,101071.00
2022-09-22T08:09:28.748Z,101068.16
2022-09-22T08:12:32.814Z,101073.66
2022-09-22T08:15:36.140Z,101080.94
2022-09-22T08:18:39.688Z,101064.91
2022-09-22T08:21:48.987Z,101069.28
2022-09-22T08:24:52.558Z,101066.50
2022-09-22T08:27:57.167Z,101063.75
2022-09-22T08:31:00.018Z,101066.06
2022-09-22T08:34:05.350Z,101057.63
2022-09-22T08:37:09.408Z,101065.31
2022-09-22T08:40:19.293Z,101058.66
2022-09-22T08:43:23.408Z,101055.75
2022-09-22T08:46:30.917Z,101057.91
2022-09-22T08:49:57.180Z,101058.22
2022-09-22T08:53:00.527Z,101054.06
2022-09-22T08:56:13.060Z,101049.16
2022-09-22T08:59:22.884Z,101039.50
2022-09-22T09:02:41.992Z,101041.81
2022-09-22T09:05:55.920Z,101036.69
2022-09-22T09:09:14.964Z,101032.69
2022-09-22T09:12:37.463Z,101033.16
2022-09-22T09:15:56.091Z,101039.69
2022-09-22T09:19:06.195Z,101025.50
2022-09-22T09:22:18.195Z,101030.56
2022-09-22T09:25:28.185Z,101026.53
2022-09-22T09:28:35.751Z,101016.22
2022-09-22T09:31:44.404Z,101014.66
2022-09-22T09:34:49.537Z,101015.13
2022-09-22T09:37:59.160Z,101007.88
2022-09-22T09:41:12.651Z,101007.44
2022-09-22T09:44:20.344Z,101007.91
2022-09-22T09:47:40.497Z,100992.59
2022-09-22T09:50:43.318Z,100990.28
2022-09-22T09:53:48.051Z,100986.66
2022-09-22T09:57:06.302Z,100984.41
2022-09-22T10:00:32.806Z,100980.22
2022-09-22T10:03:43.647Z,100977.13
2022-09-22T10:06:46.989Z,100972.22
2022-09-22T10:09:51.473Z,100967.34
2022-09-22T10:12:54.089Z,100963.53
2022-09-22T10:16:22.285Z,100949.44
2022-09-22T10:19:30.012Z,100950.69
2022-09-22T10:22:35.494Z,100947.00
2022-09-22T10:25:42.956Z,100942.44
2022-09-22T10:28:47.239Z,100938.28
2022-09-22T10:32:07.931Z,100933.75
2022-09-22T10:35:29.552Z,100920.59
2022-09-22T10:38:37.462Z,100923.13
2022-09-22T10:41:41.851Z,100925.78
2022-09-22T10:44:48.582Z,100911.69
2022-09-22T10:47:58.205Z,100919.78
2022-09-22T10:51:09.847Z,100914.59
2022-09-22T10:54:25.603Z,100915.69
2022-09-22T10:57:46.067Z,100909.75
2022-09-22T11:00:48.922Z,100903.66
2022-09-22T11:04:07.520Z,100904.94
2022-09-22T11:07:53.438Z,100895.31
2022-09-22T11:11:22.480Z,100894.72
2022-09-22T11:14:39.144Z,100883.03
2022-09-22T11:18:00.582Z,100880.59
2022-09-22T11:21:18.277Z,100872.66
2022-09-22T11:24:40.549Z,100870.03
2022-09-22T11:27:55.833Z,100869.50
2022-09-22T11:30:59.123Z,100859.97
2022-09-22T11:34:21.440Z,100838.56
2022-09-22T11:37:37.230Z,100848.16
2022-09-22T11:41:19.006Z,100845.97
2022-09-22T11:44:39.371Z,100830.69
2022-09-22T11:47:58.732Z,100839.88
2022-09-22T11:51:20.157Z,100819.38
2022-09-22T11:54:40.723Z,100820.44
2022-09-22T11:57:49.849Z,100823.09
2022-09-22T12:00:59.242Z,100830.81
2022-09-22T12:04:09.088Z,100823.91
2022-09-22T12:07:18.983Z,100817.00
2022-09-22T12:10:29.515Z,100810.25
2022-09-22T12:13:34.814Z,100805.66
2022-09-22T12:16:46.124Z,100803.44
2022-09-22T12:19:57.671Z,100802.47
2022-09-22T12:23:17.786Z,100793.38
2022-09-22T12:26:28.484Z,100796.72
2022-09-22T12:29:32.128Z,100792.91
2022-09-22T12:32:39.759Z,100788.91
2022-09-22T12:35:44.269Z,100786.75
2022-09-22T12:38:47.460Z,100778.34
2022-09-22T12:41:52.494Z,100778.53
2022-09-22T12:45:00.198Z,100787.91
2022-09-22T12:48:11.949Z,100782.53
2022-09-22T12:51:32.599Z,100789.19
2022-09-22T12:54:38.686Z,100787.81
2022-09-22T12:57:49.710Z,100781.59
2022-09-22T13:00:54.336Z,100776.88
2022-09-22T13:04:14.051Z,100769.06
2022-09-22T13:07:34.226Z,100765.03
2022-09-22T13:10:52.132Z,100767.25
2022-09-22T13:13:54.809Z,100755.69
2022-09-22T13:16:58.346Z,100755.50
2022-09-22T13:20:14.471Z,100743.63
2022-09-22T13:23:17.724Z,100756.88
2022-09-22T13:26:22.828Z,100750.19
2022-09-22T13:29:25.518Z,100739.13
2022-09-22T13:32:28.487Z,100737.53
2022-09-22T13:35:36.972Z,100746.13
2022-09-22T13:38:43.487Z,100732.00
2022-09-22T13:41:50.542Z,100729.06
2022-09-22T13:44:58.757Z,100722.00
2022-09-22T13:48:09.594Z,100722.25
2022-09-22T13:51:17.266Z,100720.84
2022-09-22T13:54:25.950Z,100708.66
2022-09-22T13:57:30.827Z,100707.38
2022-09-22T14:01:08.484Z,100712.09
2022-09-22T14:04:23.267Z,100708.56
2022-09-22T14:07:30.230Z,100699.56
2022-09-22T14:10:33.365Z,100698.25
2022-09-22T14:13:44.769Z,100687.03
2022-09-22T14:16:50.748Z,100685.59
2022-09-22T14:19:58.188Z,100692.13
2022-09-22T14:23:02.230Z,100696.41
2022-09-22T14:26:21.112Z,100688.09
2022-09-22T14:29:26.465Z,100674.13
2022-09-22T14:32:35.343Z,100679.97
2022-09-22T14:35:38.748Z,100672.84
2022-09-22T14:38:47.200Z,100677.03
2022-09-22T14:41:59.213Z,100673.13
2022-09-22T14:45:20.975Z,100677.38
2022-09-22T14:48:30.824Z,100678.94
2022-09-22T14:51:37.167Z,100669.72
2022-09-22T14:54:44.548Z,100671.47
2022-09-22T14:57:50.055Z,100663.06
2022-09-22T15:01:13.383Z,100665.00
2022-09-22T15:04:22.507Z,100658.88
2022-09-22T15:07:29.285Z,100657.22
2022-09-22T15:10:35.894Z,100656.56
2022-09-22T15:13:41.132Z,100650.19
2022-09-22T15:16:44.269Z,100661.16
2022-09-22T15:19:50.575Z,100651.19
2022-09-22T15:22:54.927Z,100650.41
2022-09-22T15:26:04.034Z,100647.69
2022-09-22T15:29:06.965Z,100632.66
2022-09-22T15:32:09.974Z,100643.38
2022-09-22T15:35:13.819Z,100633.53
2022-09-22T15:38:24.180Z,100631.34
2022-09-22T15:41:28.514Z,100642.28
2022-09-22T15:44:32.784Z,100637.00
2022-09-22T15:47:35.928Z,100633.47
2022-09-22T15:50:40.025Z,100635.66
2022-09-22T15:53:43.053Z,100635.22
2022-09-22T15:56:49.683Z,100636.47
2022-09-22T15:59:53.251Z,100639.66
2022-09-22T16:02:56.045Z,100635.56
2022-09-22T16:06:03.439Z,100632.44
2022-09-22T16:09:06.387Z,100641.16
2022-09-22T16:12:14.549Z,100635.22
2022-09-22T16:15:17.586Z,100638.56
2022-09-22T16:18:20.378Z,100637.06
2022-09-22T16:21:26.119Z,100633.13
2022-09-22T16:24:29.012Z,100642.66
2022-09-22T16:27:33.216Z,100641.13
2022-09-22T16:30:36.823Z,100640.72
2022-09-22T16:33:39.442Z,100638.50
2022-09-22T16:36:44.489Z,100636.47
2022-09-22T16:39:48.244Z,100642.41
2022-09-22T16:42:52.882Z,100641.75
2022-09-22T16:46:13.057Z,100645.41
2022-09-22T16:49:17.427Z,100647.28
2022-09-22T16:52:22.509Z,100646.88
2022-09-22T16:55:25.482Z,100646.78
2022-09-22T16:58:29.729Z,100641.28
2022-09-22T17:01:36.333Z,100655.13
2022-09-22T17:04:39.767Z,100665.13
2022-09-22T17:07:46.135Z,100653.91
2022-09-22T17:10:49.344Z,100662.13
2022-09-22T17:13:55.711Z,100663.78
2022-09-22T17:17:05.395Z,100666.38
2022-09-22T17:20:09.176Z,100662.50
2022-09-22T17:23:11.912Z,100670.38
2022-09-22T17:26:14.561Z,100675.47
2022-09-22T17:29:21.010Z,100674.56
2022-09-22T17:32:28.103Z,100684.81
2022-09-22T17:35:30.717Z,100681.81
2022-09-22T17:38:34.859Z,100690.47
2022-09-22T17:41:44.346Z,100684.03
2022-09-22T17:44:49.126Z,100695.84
2022-09-22T17:48:09.340Z,100695.53
2022-09-22T17:51:53.550Z,100681.31
2022-09-22T17:55:09.702Z,100698.50
2022-09-22T17:58:12.386Z,100705.19
2022-09-22T18:01:17.519Z,100697.34
2022-09-22T18:04:20.166Z,100702.19
2022-09-22T18:07:24.772Z,100700.78
2022-09-22T18:10:33.970Z,100703.91
2022-09-22T18:13:40.274Z,100699.72
2022-09-22T18:16:44.911Z,100706.22
2022-09-22T18:19:47.617Z,100705.69
2022-09-22T18:22:50.858Z,100697.81
2022-09-22T18:25:53.566Z,100704.47
2022-09-22T18:28:56.613Z,100710.19
2022-09-22T18:32:00.870Z,100686.69
2022-09-22T18:35:03.903Z,100713.47
2022-09-22T18:38:06.673Z,100728.28
2022-09-22T18:41:09.559Z,100731.19
2022-09-22T18:44:13.346Z,100732.31
2022-09-22T18:47:19.519Z,100733.47
2022-09-22T18:50:22.202Z,100738.22
2022-09-22T18:53:24.920Z,100736.72
2022-09-22T18:56:27.682Z,100734.22
2022-09-22T18:59:30.809Z,100738.13
2022-09-22T19:02:34.924Z,100731.44
2022-09-22T19:05:37.820Z,100742.28
2022-09-22T19:08:40.432Z,100748.91
2022-09-22T19:11:43.334Z,100750.00
2022-09-22T19:14:45.982Z,100752.06
2022-09-22T19:17:50.757Z,100759.63
2022-09-22T19:20:53.676Z,100752.63
2022-09-22T19:23:57.618Z,100758.34
2022-09-22T19:27:00.330Z,100757.66
2022-09-22T19:30:03.796Z,100755.16
2022-09-22T19:33:08.128Z,100759.91
2022-09-22T19:36:11.146Z,100758.38
2022-09-22T19:39:13.848Z,100758.69
2022-09-22T19:42:16.831Z,100761.63
2022-09-22T19:45:20.096Z,100761.00
2022-09-22T19:48:25.516Z,100751.34
2022-09-22T19:51:28.670Z,100746.97
2022-09-22T19:54:31.537Z,100753.47
2022-09-22T19:57:35.027Z,100727.94
2022-09-22T20:00:38.404Z,100753.00
2022-09-22T20:03:42.448Z,100751.22
2022-09-22T20:06:45.327Z,100751.44
2022-09-22T20:09:48.356Z,100754.34
2022-09-22T20:12:51.397Z,100749.09
2022-09-22T20:15:54.210Z,100760.06
2022-09-22T20:18:58.505Z,100751.19
2022-09-22T20:22:19.269Z,100750.50
2022-09-22T20:25:24.406Z,100753.19
2022-09-22T20:28:27.241Z,100749.91
2022-09-22T20:31:29.896Z,100748.16
2022-09-22T20:34:34.055Z,100755.53
2022-09-22T20:37:38.112Z,100748.56
2022-09-22T20:40:41.589Z,100753.19
2022-09-22T20:43:44.493Z,100751.56
2022-09-22T20:46:48.859Z,100758.97
2022-09-22T20:49:52.872Z,100757.28
2022-09-22T20:52:56.344Z,100752.00
2022-09-22T20:56:01.255Z,100755.75
2022-09-22T20:59:04.251Z,100733.72
2022-09-22T21:02:07.213Z,100746.13
2022-09-22T21:05:11.505Z,100747.25
2022-09-22T21:08:31.584Z,100741.00
2022-09-22T21:11:34.337Z,100746.53
2022-09-22T21:14:37.129Z,100742.13
2022-09-22T21:17:43.951Z,100741.34
2022-09-22T21:20:48.214Z,100737.91
2022-09-22T21:23:51.702Z,100744.41
2022-09-22T21:26:54.421Z,100743.66
2022-09-22T21:29:57.892Z,100744.63
2022-09-22T21:33:03.096Z,100742.84
2022-09-22T21:36:10.086Z,100739.31
2022-09-22T21:39:12.880Z,100738.53
2022-09-22T21:42:15.726Z,100739.50
2022-09-22T21:45:20.055Z,100741.47
2022-09-22T21:48:23.148Z,100729.88
2022-09-22T21:51:29.032Z,100729.97
2022-09-22T21:54:31.750Z,100723.78
2022-09-22T21:57:34.795Z,100728.44
2022-09-22T22:00:51.576Z,100724.13
2022-09-22T22:03:56.907Z,100710.03
2022-09-22T22:07:01.586Z,100718.00
2022-09-22T22:10:05.048Z,100714.69
2022-09-22T22:13:07.680Z,100704.97
2022-09-22T22:16:13.440Z,100713.94
2022-09-22T22:19:17.647Z,100697.06
2022-09-22T22:22:22.085Z,100708.69
2022-09-22T22:25:24.814Z,100704.31
2022-09-22T22:28:28.016Z,100704.31
2022-09-22T22:31:31.121Z,100701.75
2022-09-22T22:34:34.484Z,100700.94
2022-09-22T22:37:38.521Z,100702.00
2022-09-22T22:40:41.919Z,100709.13
2022-09-22T22:43:45.462Z,100704.72
2022-09-22T22:46:48.657Z,100702.94
2022-09-22T22:49:51.415Z,100702.13
2022-09-22T22:52:55.792Z,100704.06
2022-09-22T22:56:00.202Z,100681.84
2022-09-22T22:59:02.985Z,100698.81
2022-09-22T23:02:05.775Z,100700.44
2022-09-22T23:05:09.522Z,100697.94
2022-09-22T23:08:14.172Z,100694.53
2022-09-22T23:11:19.635Z,100692.75
2022-09-22T23:14:22.618Z,100693.69
2022-09-22T23:17:25.261Z,100686.53
2022-09-22T23:20:28.072Z,100687.56
2022-09-22T23:23:32.640Z,100691.22
2022-09-22T23:26:37.243Z,100687.59
2022-09-22T23:29:40.508Z,100680.47
2022-09-22T23:32:44.080Z,100684.16
2022-09-22T23:35:54.601Z,100691.44
2022-09-22T23:39:01.901Z,100694.19
2022-09-22T23:42:04.954Z,100695.06
2022-09-22T23:45:10.378Z,100702.34
2022-09-22T23:48:13.094Z,100692.56
2022-09-22T23:51:16.210Z,100687.38
2022-09-22T23:54:20.253Z,100691.84
2022-09-22T23:57:23.364Z,100689.19
